createdAt,value
2022-10-19T00:01:48.948Z,95211.19
2022-10-19T00:04:15.568Z,95209.13
2022-10-19T00:06:42.355Z,95205.53
2022-10-19T00:09:15.258Z,95210.16
2022-10-19T00:11:45.687Z,95210.47
2022-10-19T00:14:15.486Z,95207.44
2022-10-19T00:16:46.727Z,95209.91
2022-10-19T00:19:17.045Z,95209.25
2022-10-19T00:21:44.553Z,95206.88
2022-10-19T00:24:11.795Z,95219.16
2022-10-19T00:26:39.474Z,95211.22
2022-10-19T00:29:07.083Z,95204.56
2022-10-19T00:31:34.598Z,95207.59
2022-10-19T00:34:01.548Z,95208.06
2022-10-19T00:36:32.850Z,95212.50
2022-10-19T00:39:02.191Z,95215.38
2022-10-19T00:41:31.049Z,95215.47
2022-10-19T00:44:00.839Z,95214.38
2022-10-19T00:46:29.802Z,95216.59
2022-10-19T00:49:09.830Z,95214.88
2022-10-19T00:51:40.733Z,95213.91
2022-10-19T00:54:09.007Z,95211.88
2022-10-19T00:56:39.282Z,95216.84
2022-10-19T00:59:06.706Z,95219.19
2022-10-19T01:01:34.132Z,95215.84
2022-10-19T01:04:01.849Z,95218.06
2022-10-19T01:06:29.110Z,95221.88
2022-10-19T01:08:55.768Z,95217.28
2022-10-19T01:11:25.480Z,95216.31
2022-10-19T01:14:14.574Z,95206.72
2022-10-19T01:17:01.104Z,95204.22
2022-10-19T01:19:49.238Z,95208.31
2022-10-19T01:22:53.562Z,95204.81
2022-10-19T01:25:31.642Z,95203.78
2022-10-19T01:28:22.112Z,95195.81
2022-10-19T01:30:54.211Z,95198.66
2022-10-19T01:33:46.110Z,95199.66
2022-10-19T01:36:26.723Z,95198.28
2022-10-19T01:39:10.238Z,95193.91
2022-10-19T01:41:45.812Z,95190.69
2022-10-19T01:44:22.737Z,95194.97
2022-10-19T01:47:02.767Z,95189.44
2022-10-19T01:49:39.248Z,95188.19
2022-10-19T01:52:10.870Z,95185.16
2022-10-19T01:54:43.169Z,95182.34
2022-10-19T01:57:13.111Z,95174.88
2022-10-19T01:59:40.071Z,95173.63
2022-10-19T02:02:10.460Z,95179.72
2022-10-19T02:04:39.246Z,95175.44
2022-10-19T02:07:08.082Z,95170.53
2022-10-19T02:09:35.563Z,95170.41
2022-10-19T02:12:08.406Z,95168.34
2022-10-19T02:14:40.286Z,95171.13
2022-10-19T02:17:14.004Z,95172.25
2022-10-19T02:19:41.728Z,95177.47
2022-10-19T02:22:09.001Z,95169.81
2022-10-19T02:24:35.865Z,95169.09
2022-10-19T02:27:05.588Z,95169.88
2022-10-19T02:29:37.226Z,95172.03
2022-10-19T02:32:04.538Z,95161.06
2022-10-19T02:34:32.163Z,95159.09
2022-10-19T02:36:59.158Z,95147.53
2022-10-19T02:39:25.920Z,95151.19
2022-10-19T02:42:01.918Z,95151.50
2022-10-19T02:44:39.785Z,95147.38
2022-10-19T02:47:33.062Z,95155.09
2022-10-19T02:50:00.156Z,95149.22
2022-10-19T02:52:26.762Z,95146.19
2022-10-19T02:54:53.435Z,95145.53
2022-10-19T02:57:25.759Z,95140.34
2022-10-19T02:59:52.814Z,95145.28
2022-10-19T03:02:20.907Z,95144.75
2022-10-19T03:07:21.103Z,95140.44
2022-10-19T03:09:48.209Z,95136.63
2022-10-19T03:12:15.239Z,95135.97
2022-10-19T03:14:42.734Z,95129.91
2022-10-19T03:17:10.166Z,95125.00
2022-10-19T03:19:37.241Z,95124.78
2022-10-19T03:22:04.260Z,95120.50
2022-10-19T03:24:31.739Z,95119.38
2022-10-19T03:26:58.473Z,95119.72
2022-10-19T03:29:25.219Z,95117.88
2022-10-19T03:31:52.019Z,95111.44
2022-10-19T03:34:18.712Z,95117.66
2022-10-19T03:36:45.667Z,95124.19
2022-10-19T03:39:15.325Z,95120.84
2022-10-19T03:41:42.887Z,95126.44
2022-10-19T03:44:11.026Z,95123.25
2022-10-19T03:46:38.285Z,95114.91
2022-10-19T03:49:05.390Z,95122.53
2022-10-19T03:51:33.259Z,95130.63
2022-10-19T03:54:08.646Z,95127.81
2022-10-19T03:56:36.057Z,95121.19
2022-10-19T03:59:04.585Z,95117.19
2022-10-19T04:01:36.891Z,95123.19
2022-10-19T04:04:07.548Z,95119.09
2022-10-19T04:06:37.138Z,95129.06
2022-10-19T04:09:05.614Z,95125.91
2022-10-19T04:11:34.047Z,95125.63
2022-10-19T04:14:01.759Z,95122.13
2022-10-19T04:16:29.915Z,95125.03
2022-10-19T04:18:56.858Z,95126.66
2022-10-19T04:21:35.549Z,95121.91
2022-10-19T04:24:09.160Z,95124.59
2022-10-19T04:26:41.241Z,95117.13
2022-10-19T04:29:08.175Z,95124.91
2022-10-19T04:31:35.137Z,95116.22
2022-10-19T04:34:01.865Z,95108.81
2022-10-19T04:36:28.661Z,95107.56
2022-10-19T04:38:55.363Z,95121.59
2022-10-19T04:41:23.097Z,95129.50
2022-10-19T04:43:54.564Z,95123.50
2022-10-19T04:46:21.391Z,95119.25
2022-10-19T04:48:48.770Z,95113.88
2022-10-19T04:51:16.711Z,95108.81
2022-10-19T04:53:44.198Z,95115.16
2022-10-19T04:56:22.666Z,95111.69
2022-10-19T04:58:49.702Z,95112.47
2022-10-19T05:01:19.182Z,95113.72
2022-10-19T05:03:47.157Z,95107.41
2022-10-19T05:06:15.422Z,95110.41
2022-10-19T05:08:42.288Z,95112.97
2022-10-19T05:11:12.755Z,95117.56
2022-10-19T05:13:39.964Z,95114.72
2022-10-19T05:16:08.585Z,95111.84
2022-10-19T05:18:35.527Z,95114.38
2022-10-19T05:21:10.726Z,95115.59
2022-10-19T05:23:38.087Z,95119.38
2022-10-19T05:26:10.218Z,95110.72
2022-10-19T05:28:37.287Z,95116.38
2022-10-19T05:31:15.609Z,95115.59
2022-10-19T05:33:43.577Z,95112.25
2022-10-19T05:36:35.086Z,95104.47
2022-10-19T05:39:14.510Z,95106.53
2022-10-19T05:41:44.006Z,95111.59
2022-10-19T05:44:16.123Z,95104.00
2022-10-19T05:46:42.765Z,95107.31
2022-10-19T05:49:13.920Z,95109.19
2022-10-19T05:51:40.669Z,95110.78
2022-10-19T05:54:08.393Z,95107.78
2022-10-19T05:56:35.086Z,95115.63
2022-10-19T05:59:05.282Z,95109.59
2022-10-19T06:01:32.953Z,95118.16
2022-10-19T06:04:00.748Z,95107.72
2022-10-19T06:06:27.985Z,95113.25
2022-10-19T06:08:56.555Z,95120.53
2022-10-19T06:11:27.747Z,95113.72
2022-10-19T06:13:56.638Z,95115.59
2022-10-19T06:16:24.597Z,95113.56
2022-10-19T06:18:52.867Z,95115.59
2022-10-19T06:21:21.637Z,95118.31
2022-10-19T06:23:53.539Z,95114.34
2022-10-19T06:26:20.986Z,95128.75
2022-10-19T06:28:48.359Z,95119.88
2022-10-19T06:31:15.321Z,95115.47
2022-10-19T06:33:44.284Z,95119.41
2022-10-19T06:36:14.440Z,95122.09
2022-10-19T06:38:42.257Z,95129.41
2022-10-19T06:41:10.000Z,95126.06
2022-10-19T06:43:36.883Z,95124.34
2022-10-19T06:46:05.571Z,95133.69
2022-10-19T06:48:32.253Z,95130.66
2022-10-19T06:51:00.630Z,95135.56
2022-10-19T06:53:29.172Z,95127.22
2022-10-19T06:55:59.386Z,95136.59
2022-10-19T06:58:26.414Z,95140.50
2022-10-19T07:01:00.535Z,95147.63
2022-10-19T07:03:28.612Z,95140.31
2022-10-19T07:05:55.877Z,95151.56
2022-10-19T07:08:23.122Z,95145.41
2022-10-19T07:10:54.397Z,95145.88
2022-10-19T07:13:21.650Z,95142.88
2022-10-19T07:15:48.781Z,95147.47
2022-10-19T07:18:15.670Z,95150.31
2022-10-19T07:20:42.389Z,95140.31
2022-10-19T07:23:09.127Z,95143.66
2022-10-19T07:25:36.265Z,95137.34
2022-10-19T07:28:03.013Z,95140.50
2022-10-19T07:30:29.713Z,95127.72
2022-10-19T07:32:56.372Z,95133.25
2022-10-19T07:35:23.098Z,95127.84
2022-10-19T07:37:49.759Z,95135.75
2022-10-19T07:40:16.562Z,95130.66
2022-10-19T07:42:43.186Z,95130.94
2022-10-19T07:45:10.321Z,95128.25
2022-10-19T07:47:37.124Z,95128.25
2022-10-19T07:50:04.067Z,95137.13
2022-10-19T07:52:33.042Z,95135.72
2022-10-19T07:55:02.713Z,95124.34
2022-10-19T07:57:29.394Z,95132.56
2022-10-19T07:59:56.081Z,95129.06
2022-10-19T08:02:25.019Z,95127.81
2022-10-19T08:05:01.196Z,95129.53
2022-10-19T08:07:33.659Z,95122.72
2022-10-19T08:10:00.644Z,95133.66
2022-10-19T08:12:27.388Z,95135.22
2022-10-19T08:14:54.476Z,95143.09
2022-10-19T08:17:21.124Z,95135.66
2022-10-19T08:19:47.913Z,95140.00
2022-10-19T08:22:14.590Z,95141.59
2022-10-19T08:24:41.431Z,95147.13
2022-10-19T08:27:08.434Z,95147.13
2022-10-19T08:29:35.196Z,95146.19
2022-10-19T08:32:01.850Z,95143.81
2022-10-19T08:34:28.508Z,95136.59
2022-10-19T08:36:55.230Z,95139.56
2022-10-19T08:39:21.932Z,95145.44
2022-10-19T08:42:06.614Z,95149.72
2022-10-19T08:44:55.401Z,95149.41
2022-10-19T08:47:52.378Z,95142.41
2022-10-19T08:50:29.496Z,95133.38
2022-10-19T08:53:04.126Z,95132.38
2022-10-19T08:55:38.481Z,95135.72
2022-10-19T08:58:23.380Z,95130.47
2022-10-19T09:01:00.221Z,95134.84
2022-10-19T09:03:54.372Z,95127.34
2022-10-19T09:06:48.477Z,95130.56
2022-10-19T09:09:18.595Z,95122.81
2022-10-19T09:11:49.710Z,95127.75
2022-10-19T09:14:23.188Z,95136.63
2022-10-19T09:16:49.982Z,95133.78
2022-10-19T09:19:25.850Z,95142.97
2022-10-19T09:22:01.353Z,95143.13
2022-10-19T09:24:43.161Z,95141.41
2022-10-19T09:27:25.167Z,95139.03
2022-10-19T09:30:02.574Z,95136.81
2022-10-19T09:32:39.162Z,95135.31
2022-10-19T09:35:17.321Z,95131.59
2022-10-19T09:37:48.516Z,95134.44
2022-10-19T09:40:19.285Z,95132.72
2022-10-19T09:42:46.055Z,95129.00
2022-10-19T09:45:19.929Z,95133.41
2022-10-19T09:47:48.881Z,95129.59
2022-10-19T09:50:24.858Z,95129.00
2022-10-19T09:53:05.038Z,95131.28
2022-10-19T09:56:06.659Z,95130.13
2022-10-19T09:58:34.979Z,95128.25
2022-10-19T10:01:02.962Z,95127.09
2022-10-19T10:03:40.409Z,95120.63
2022-10-19T10:06:14.245Z,95122.81
2022-10-19T10:08:57.989Z,95130.25
2022-10-19T10:11:32.705Z,95126.69
2022-10-19T10:14:09.144Z,95123.19
2022-10-19T10:16:36.798Z,95129.63
2022-10-19T10:19:07.805Z,95130.81
2022-10-19T10:21:54.574Z,95137.53
2022-10-19T10:24:23.921Z,95126.28
2022-10-19T10:26:54.436Z,95124.56
2022-10-19T10:29:22.506Z,95120.69
2022-10-19T10:31:53.584Z,95120.88
2022-10-19T10:37:22.476Z,95121.50
2022-10-19T10:40:00.490Z,95112.72
2022-10-19T10:42:41.868Z,95111.16
2022-10-19T10:45:20.571Z,95110.41
2022-10-19T10:47:48.477Z,95109.69
2022-10-19T10:50:23.297Z,95113.19
2022-10-19T10:52:59.165Z,95108.63
2022-10-19T10:55:26.739Z,95104.03
2022-10-19T10:58:05.269Z,95106.19
2022-10-19T11:00:34.577Z,95103.38
2022-10-19T11:03:32.878Z,95102.78
2022-10-19T11:06:01.002Z,95086.03
2022-10-19T11:09:15.958Z,95086.06
2022-10-19T11:11:46.021Z,95080.91
2022-10-19T11:14:22.636Z,95076.75
2022-10-19T11:16:52.344Z,95090.59
2022-10-19T11:19:25.786Z,95091.91
2022-10-19T11:22:13.718Z,95092.94
2022-10-19T11:24:59.201Z,95086.31
2022-10-19T11:27:44.311Z,95081.91
2022-10-19T11:30:15.667Z,95082.03
2022-10-19T11:33:07.834Z,95078.34
2022-10-19T11:35:56.493Z,95066.84
2022-10-19T11:38:29.909Z,95069.53
2022-10-19T11:41:17.846Z,95071.56
2022-10-19T11:44:20.086Z,95068.59
2022-10-19T11:46:52.764Z,95065.00
2022-10-19T11:49:39.424Z,95064.66
2022-10-19T11:52:16.068Z,95058.06
2022-10-19T11:55:01.557Z,95059.97
2022-10-19T11:57:37.471Z,95044.34
2022-10-19T12:00:37.557Z,95048.06
2022-10-19T12:03:29.820Z,95041.41
2022-10-19T12:06:21.799Z,95041.53
2022-10-19T12:09:04.299Z,95039.41
2022-10-19T12:12:01.484Z,95030.53
2022-10-19T12:14:32.925Z,95021.66
2022-10-19T12:17:05.821Z,95022.91
2022-10-19T12:19:46.489Z,95014.25
2022-10-19T12:22:21.101Z,95006.53
2022-10-19T12:24:48.710Z,95004.78
2022-10-19T12:27:17.446Z,94998.25
2022-10-19T12:29:48.599Z,94997.31
2022-10-19T12:32:19.757Z,94995.09
2022-10-19T12:34:59.252Z,94992.03
2022-10-19T12:37:31.627Z,94982.22
2022-10-19T12:40:08.786Z,94981.09
2022-10-19T12:42:58.458Z,94975.25
2022-10-19T12:45:52.365Z,94982.72
2022-10-19T12:48:21.298Z,94989.47
2022-10-19T12:50:53.038Z,94982.47
2022-10-19T12:53:41.156Z,94977.75
2022-10-19T12:56:20.103Z,94973.03
2022-10-19T12:58:56.822Z,94975.06
2022-10-19T13:01:35.814Z,94965.94
2022-10-19T13:04:35.947Z,94964.56
2022-10-19T13:07:08.238Z,94969.50
2022-10-19T13:09:44.202Z,94972.88
2022-10-19T13:12:16.510Z,94969.53
2022-10-19T13:14:49.948Z,94966.50
2022-10-19T13:17:37.851Z,94963.31
2022-10-19T13:20:13.716Z,94958.44
2022-10-19T13:22:46.058Z,94950.03
2022-10-19T13:25:35.652Z,94959.41
2022-10-19T13:28:12.712Z,94954.34
2022-10-19T13:30:39.400Z,94944.69
2022-10-19T13:33:24.840Z,94948.75
2022-10-19T13:36:00.852Z,94945.28
2022-10-19T13:38:48.927Z,94941.63
2022-10-19T13:41:44.337Z,94936.38
2022-10-19T13:44:15.349Z,94937.75
2022-10-19T13:47:17.408Z,94946.66
2022-10-19T13:50:11.885Z,94937.56
2022-10-19T13:53:03.795Z,94926.06
2022-10-19T13:55:48.433Z,94933.22
2022-10-19T13:58:39.599Z,94927.88
2022-10-19T14:01:12.287Z,94919.25
2022-10-19T14:04:05.273Z,94907.28
2022-10-19T14:07:01.789Z,94914.72
2022-10-19T14:09:47.510Z,94926.94
2022-10-19T14:12:36.752Z,94916.56
2022-10-19T14:15:23.117Z,94910.44
2022-10-19T14:17:50.165Z,94920.34
2022-10-19T14:20:36.116Z,94906.69
2022-10-19T14:23:25.735Z,94916.63
2022-10-19T14:25:59.373Z,94914.81
2022-10-19T14:28:27.967Z,94912.09
2022-10-19T14:31:05.986Z,94906.66
2022-10-19T14:33:36.046Z,94909.34
2022-10-19T14:36:02.823Z,94903.41
2022-10-19T14:38:37.232Z,94899.59
2022-10-19T14:41:06.316Z,94901.28
2022-10-19T14:43:34.882Z,94902.97
2022-10-19T14:46:07.291Z,94898.22
2022-10-19T14:48:35.300Z,94886.88
2022-10-19T14:51:04.446Z,94877.19
2022-10-19T14:53:31.077Z,94874.75
2022-10-19T14:56:03.641Z,94877.78
2022-10-19T14:58:36.248Z,94876.78
2022-10-19T15:01:03.142Z,94881.81
2022-10-19T15:03:30.793Z,94876.00
2022-10-19T15:06:06.774Z,94874.41
2022-10-19T15:08:42.577Z,94862.03
2022-10-19T15:11:24.391Z,94855.50
2022-10-19T15:14:00.328Z,94853.72
2022-10-19T15:16:30.156Z,94867.66
2022-10-19T15:21:30.428Z,94863.53
2022-10-19T15:24:23.020Z,94868.03
2022-10-19T15:27:01.694Z,94865.78
2022-10-19T15:29:35.205Z,94858.91
2022-10-19T15:32:16.802Z,94862.50
2022-10-19T15:34:44.453Z,94859.25
2022-10-19T15:37:20.140Z,94850.28
2022-10-19T15:39:47.820Z,94845.44
2022-10-19T15:42:50.838Z,94850.50
2022-10-19T15:45:38.101Z,94845.00
2022-10-19T15:48:10.809Z,94838.81
2022-10-19T15:50:48.599Z,94837.34
2022-10-19T15:53:16.018Z,94836.91
2022-10-19T15:55:42.759Z,94840.38
2022-10-19T15:58:10.877Z,94841.38
2022-10-19T16:00:38.376Z,94835.06
2022-10-19T16:03:05.190Z,94827.66
2022-10-19T16:05:33.053Z,94834.88
2022-10-19T16:07:59.681Z,94829.50
2022-10-19T16:10:27.830Z,94833.31
2022-10-19T16:12:54.559Z,94829.28
2022-10-19T16:15:23.355Z,94827.81
2022-10-19T16:17:53.930Z,94826.56
2022-10-19T16:20:20.942Z,94820.72
2022-10-19T16:22:48.370Z,94818.34
2022-10-19T16:25:16.119Z,94811.84
2022-10-19T16:27:42.812Z,94807.34
2022-10-19T16:30:10.251Z,94808.13
2022-10-19T16:32:37.596Z,94799.63
2022-10-19T16:35:04.752Z,94798.03
2022-10-19T16:37:31.405Z,94800.75
2022-10-19T16:39:58.101Z,94802.66
2022-10-19T16:42:29.641Z,94810.75
2022-10-19T16:44:57.360Z,94810.63
2022-10-19T16:47:24.097Z,94811.75
2022-10-19T16:49:58.355Z,94812.09
2022-10-19T16:52:24.987Z,94817.59
2022-10-19T16:54:51.717Z,94811.53
2022-10-19T16:57:18.424Z,94811.44
2022-10-19T16:59:45.118Z,94817.28
2022-10-19T17:02:14.224Z,94812.22
2022-10-19T17:04:40.889Z,94816.47
2022-10-19T17:07:07.530Z,94815.69
2022-10-19T17:09:41.778Z,94815.03
2022-10-19T17:12:09.901Z,94822.34
2022-10-19T17:14:36.920Z,94824.91
2022-10-19T17:17:03.650Z,94820.19
2022-10-19T17:19:30.356Z,94824.81
2022-10-19T17:21:59.077Z,94826.50
2022-10-19T17:24:26.159Z,94828.41
2022-10-19T17:26:53.448Z,94819.06
2022-10-19T17:29:21.762Z,94818.28
2022-10-19T17:31:48.845Z,94814.00
2022-10-19T17:34:16.503Z,94811.66
2022-10-19T17:36:44.998Z,94816.25
2022-10-19T17:39:22.131Z,94829.31
2022-10-19T17:41:51.915Z,94826.16
2022-10-19T17:44:20.642Z,94830.66
2022-10-19T17:46:48.086Z,94828.66
2022-10-19T17:49:14.848Z,94827.94
2022-10-19T17:51:41.692Z,94815.84
2022-10-19T17:54:11.421Z,94814.59
2022-10-19T17:56:38.497Z,94814.47
2022-10-19T17:59:07.953Z,94820.88
2022-10-19T18:01:35.179Z,94813.91
2022-10-19T18:04:01.933Z,94823.47
2022-10-19T18:06:31.798Z,94829.53
2022-10-19T18:09:00.883Z,94833.59
2022-10-19T18:11:34.624Z,94824.81
2022-10-19T18:14:01.853Z,94829.88
2022-10-19T18:16:34.338Z,94831.31
2022-10-19T18:19:02.467Z,94825.69
2022-10-19T18:21:35.963Z,94825.56
2022-10-19T18:24:03.645Z,94824.88
2022-10-19T18:26:33.180Z,94821.00
2022-10-19T18:29:02.337Z,94826.97
2022-10-19T18:31:30.810Z,94830.50
2022-10-19T18:34:02.813Z,94821.38
2022-10-19T18:36:30.915Z,94823.97
2022-10-19T18:39:00.848Z,94824.28
2022-10-19T18:41:28.122Z,94819.13
2022-10-19T18:43:57.823Z,94818.34
2022-10-19T18:46:25.626Z,94817.63
2022-10-19T18:48:53.683Z,94823.47
2022-10-19T18:51:22.078Z,94818.41
2022-10-19T18:53:49.312Z,94820.78
2022-10-19T18:56:18.863Z,94813.22
2022-10-19T18:58:46.157Z,94810.84
2022-10-19T19:01:16.554Z,94818.03
2022-10-19T19:03:45.884Z,94813.84
2022-10-19T19:06:18.449Z,94804.50
2022-10-19T19:08:45.223Z,94810.31
2022-10-19T19:11:20.091Z,94812.72
2022-10-19T19:13:49.385Z,94809.13
2022-10-19T19:16:16.275Z,94805.41
2022-10-19T19:18:43.339Z,94799.88
2022-10-19T19:21:18.077Z,94802.94
2022-10-19T19:23:45.596Z,94794.81
2022-10-19T19:26:13.551Z,94792.63
2022-10-19T19:28:41.909Z,94792.00
2022-10-19T19:31:10.718Z,94798.03
2022-10-19T19:33:38.622Z,94792.84
2022-10-19T19:36:07.110Z,94792.84
2022-10-19T19:38:34.702Z,94793.63
2022-10-19T19:41:04.463Z,94786.09
2022-10-19T19:43:33.038Z,94783.91
2022-10-19T19:46:04.626Z,94782.06
2022-10-19T19:48:35.248Z,94785.84
2022-10-19T19:51:01.960Z,94792.66
2022-10-19T19:53:28.636Z,94788.72
2022-10-19T19:55:55.422Z,94789.69
2022-10-19T19:58:22.071Z,94798.25
2022-10-19T20:00:48.759Z,94794.66
2022-10-19T20:03:15.940Z,94780.44
2022-10-19T20:05:42.708Z,94797.66
2022-10-19T20:08:09.684Z,94798.84
2022-10-19T20:10:41.122Z,94802.75
2022-10-19T20:13:08.294Z,94802.63
2022-10-19T20:15:38.764Z,94800.91
2022-10-19T20:18:06.065Z,94798.22
2022-10-19T20:20:32.767Z,94800.75
2022-10-19T20:22:59.499Z,94793.34
2022-10-19T20:25:26.362Z,94801.25
2022-10-19T20:27:53.020Z,94789.75
2022-10-19T20:30:19.887Z,94788.63
2022-10-19T20:32:46.488Z,94788.31
2022-10-19T20:35:13.139Z,94782.16
2022-10-19T20:37:39.826Z,94783.91
2022-10-19T20:40:08.702Z,94784.06
2022-10-19T20:42:36.259Z,94784.72
2022-10-19T20:45:03.793Z,94785.50
2022-10-19T20:47:30.512Z,94773.69
2022-10-19T20:49:57.253Z,94764.22
2022-10-19T20:52:23.992Z,94762.63
2022-10-19T20:54:50.653Z,94754.13
2022-10-19T20:57:17.327Z,94755.84
2022-10-19T20:59:45.708Z,94752.72
2022-10-19T21:02:12.392Z,94756.81
2022-10-19T21:04:39.139Z,94757.16
2022-10-19T21:07:05.943Z,94759.97
2022-10-19T21:09:32.747Z,94757.94
2022-10-19T21:12:01.472Z,94755.72
2022-10-19T21:14:30.050Z,94750.19
2022-10-19T21:16:58.612Z,94756.66
2022-10-19T21:19:27.880Z,94750.81
2022-10-19T21:21:58.550Z,94748.78
2022-10-19T21:24:28.725Z,94748.28
2022-10-19T21:26:55.940Z,94740.09
2022-10-19T21:29:22.735Z,94736.28
2022-10-19T21:31:52.227Z,94738.19
2022-10-19T21:34:22.552Z,94747.38
2022-10-19T21:36:49.486Z,94745.78
2022-10-19T21:39:16.550Z,94756.81
2022-10-19T21:41:43.621Z,94750.97
2022-10-19T21:44:10.666Z,94743.09
2022-10-19T21:46:37.412Z,94747.34
2022-10-19T21:49:04.185Z,94748.44
2022-10-19T21:51:44.396Z,94746.72
2022-10-19T21:54:14.319Z,94750.19
2022-10-19T21:56:41.162Z,94747.34
2022-10-19T21:59:07.916Z,94743.72
2022-10-19T22:01:40.109Z,94742.94
2022-10-19T22:04:12.686Z,94740.88
2022-10-19T22:06:40.047Z,94739.78
2022-10-19T22:09:08.826Z,94745.16
2022-10-19T22:11:35.753Z,94737.41
2022-10-19T22:14:03.748Z,94738.22
2022-10-19T22:16:31.710Z,94739.00
2022-10-19T22:18:58.730Z,94736.47
2022-10-19T22:21:29.182Z,94727.78
2022-10-19T22:23:58.816Z,94725.41
2022-10-19T22:26:34.792Z,94725.72
2022-10-19T22:29:02.252Z,94733.28
2022-10-19T22:31:31.246Z,94728.72
2022-10-19T22:34:00.072Z,94728.56
2022-10-19T22:36:27.061Z,94728.06
2022-10-19T22:38:55.084Z,94717.81
2022-10-19T22:41:22.164Z,94712.75
2022-10-19T22:43:49.122Z,94706.00
2022-10-19T22:46:15.808Z,94705.38
2022-10-19T22:48:42.773Z,94705.38
2022-10-19T22:51:10.045Z,94701.13
2022-10-19T22:53:36.713Z,94708.19
2022-10-19T22:56:03.951Z,94708.34
2022-10-19T22:58:30.695Z,94699.50
2022-10-19T23:01:06.740Z,94690.53
2022-10-19T23:03:34.066Z,94695.72
2022-10-19T23:06:00.772Z,94690.53
2022-10-19T23:08:28.270Z,94691.44
2022-10-19T23:10:54.945Z,94686.09
2022-10-19T23:13:22.110Z,94699.66
2022-10-19T23:15:50.824Z,94700.56
2022-10-19T23:18:17.957Z,94703.25
2022-10-19T23:20:56.511Z,94696.50
2022-10-19T23:23:24.027Z,94684.16
2022-10-19T23:26:02.522Z,94691.59
2022-10-19T23:28:30.256Z,94683.69
2022-10-19T23:30:59.400Z,94679.59
2022-10-19T23:33:28.176Z,94683.38
2022-10-19T23:35:54.826Z,94679.59
2022-10-19T23:38:21.453Z,94679.44
2022-10-19T23:40:48.127Z,94688.88
2022-10-19T23:43:14.743Z,94679.91
2022-10-19T23:45:41.459Z,94680.88
2022-10-19T23:48:08.153Z,94692.53
2022-10-19T23:50:34.926Z,94673.63
2022-10-19T23:53:01.833Z,94676.66
2022-10-19T23:55:28.549Z,94672.41
2022-10-19T23:57:55.198Z,94681.09
